»·PEaware :: N519EB KSMX-KBFL

N519EB :: KSMX-KBFL

FLIGHT INFORMATION

Flight Status: Arrived
Operator: Privately registered:
United States
More flights under this callsign
Pilot: Eric B. (20616)
Aircraft: Unknown
(DA62)
More flights by this aircraft type
Origin: KSMX Santa Maria Pub/Capt Hancock
United States
Destination: KBFL Meadows
United States
More flights between these airports :: More routes between these airports
Route: +
File this flight plan on PilotEdge
Remarks: CAT 5
Altitude:
(Current/Filed)
7,500ft
Speed:
(Current/Filed)
159kts
Departed: 04-Mar-19 11:19 AM
Arrived: 04-Mar-19 11:54 AM
Distance/Time
Traveled:
76nm/0:35
Distance/Time
To Go:
Arrived

Flight Plot

Page will automatically refresh every two minutes.


Map Options




Map Legend


Flown Route
Filed Route
Departure Airport
Arrival Airport
Navaid (VOR, NDB)
Fix

Horizontal Profiles

Position Reports

Time Latitude Longitude Heading Altitude Ground
Speed
04-Mar-19 11:06 34.896952 -120.446157 273 265ft 0kts
04-Mar-19 11:07 34.896952 -120.446157 273 265ft 0kts
04-Mar-19 11:08 34.896952 -120.446157 273 265ft 0kts
04-Mar-19 11:09 34.896953 -120.446191 273 265ft 0kts
04-Mar-19 11:10 34.896742 -120.447609 227 265ft 4kts
04-Mar-19 11:11 34.895564 -120.446676 135 265ft 7kts
04-Mar-19 11:12 34.894035 -120.445168 181 265ft 6kts
04-Mar-19 11:13 34.893417 -120.445204 180 265ft 0kts
04-Mar-19 11:14 34.893417 -120.445204 180 265ft 0kts
04-Mar-19 11:15 34.893417 -120.445204 180 265ft 0kts
04-Mar-19 11:16 34.893417 -120.445204 180 265ft 0kts
04-Mar-19 11:17 34.893417 -120.445204 180 265ft 0kts
04-Mar-19 11:18 34.894532 -120.447991 317 265ft 63kts
04-Mar-19 11:19 34.911918 -120.468685 314 986ft 109kts
04-Mar-19 11:20 34.934741 -120.489497 19 2064ft 111kts
04-Mar-19 11:21 34.942054 -120.453202 90 2809ft 140kts
04-Mar-19 11:22 34.941861 -120.399751 90 2801ft 166kts
04-Mar-19 11:23 34.944923 -120.345875 70 3337ft 145kts
04-Mar-19 11:24 34.960452 -120.302783 64 4320ft 134kts
04-Mar-19 11:25 34.976130 -120.262193 64 5312ft 131kts
04-Mar-19 11:26 34.991659 -120.222051 64 6311ft 131kts
04-Mar-19 11:27 35.007197 -120.181846 64 7311ft 131kts
04-Mar-19 11:28 35.025008 -120.135734 64 7504ft 166kts
04-Mar-19 11:29 35.045255 -120.083208 64 7500ft 173kts
04-Mar-19 11:30 35.065902 -120.029551 64 7499ft 174kts
04-Mar-19 11:31 35.086626 -119.975604 64 7499ft 175kts
04-Mar-19 11:32 35.107477 -119.921276 64 7499ft 175kts
04-Mar-19 11:33 35.128265 -119.867228 64 7499ft 175kts
04-Mar-19 11:34 35.148968 -119.813112 64 7499ft 175kts
04-Mar-19 11:35 35.169700 -119.758805 64 7499ft 176kts
04-Mar-19 11:36 35.190405 -119.704441 64 7499ft 176kts
04-Mar-19 11:37 35.211159 -119.649862 64 7499ft 176kts
04-Mar-19 11:38 35.231786 -119.595463 64 7499ft 176kts
04-Mar-19 11:39 35.252425 -119.540737 64 7499ft 176kts
04-Mar-19 11:40 35.273062 -119.486197 64 7499ft 176kts
04-Mar-19 11:41 35.293375 -119.432413 64 7051ft 174kts
04-Mar-19 11:42 35.313645 -119.378665 64 6447ft 173kts
04-Mar-19 11:43 35.333243 -119.326599 65 5701ft 166kts
04-Mar-19 11:44 35.352627 -119.275042 65 4601ft 166kts
04-Mar-19 11:45 35.371856 -119.223808 65 3414ft 163kts
04-Mar-19 11:46 35.389107 -119.177721 65 2989ft 125kts
04-Mar-19 11:47 35.404270 -119.138707 67 2418ft 134kts
04-Mar-19 11:48 35.417221 -119.101284 92 1924ft 91kts
04-Mar-19 11:49 35.401742 -119.078623 140 1619ft 86kts
04-Mar-19 11:50 35.390629 -119.056957 57 1458ft 87kts
04-Mar-19 11:51 35.408820 -119.040041 357 1044ft 79kts
04-Mar-19 11:52 35.426779 -119.051631 317 555ft 75kts
04-Mar-19 11:53 35.434185 -119.060172 317 482ft 4kts
04-Mar-19 11:54 35.434964 -119.059862 46 486ft 0kts
04-Mar-19 11:55 35.435103 -119.059684 46 486ft 3kts
04-Mar-19 11:56 35.436043 -119.058506 51 490ft 4kts
04-Mar-19 11:57 35.435554 -119.056027 135 493ft 12kts
04-Mar-19 11:58 35.432644 -119.052490 134 493ft 15kts
04-Mar-19 11:59 35.428961 -119.048050 135 489ft 22kts
04-Mar-19 12:00 35.425729 -119.043097 50 482ft 10kts
04-Mar-19 12:01 35.426082 -119.042697 88 484ft 0kts
04-Mar-19 12:02 35.426082 -119.042697 88 484ft 0kts
04-Mar-19 12:03 35.426082 -119.042697 88 484ft 0kts
04-Mar-19 12:04 35.426082 -119.042697 88 484ft 0kts
04-Mar-19 12:05 35.426082 -119.042697 88 484ft 0kts
04-Mar-19 12:06 35.426082 -119.042697 88 484ft 0kts
04-Mar-19 12:07 35.426082 -119.042697 88 484ft 0kts
04-Mar-19 12:08 35.426082 -119.042697 88 484ft 0kts

Navigation Log

Ident Type
Flight plan parsing failed, navigation log unavailable